Time;durP1;ratioP1;P1;durP2;ratioP2;P2;SDS_P1;SDS_P2;PMS_P1;PMS_P2;Temp;Humidity;BMP_temperature;BMP_pressure;BME280_temperature;BME280_humidity;BME280_pressure;Samples;Min_cycle;Max_cycle;Signal;HPM_P1;HPM_P2
2021/10/24 00:01:54;;;;;;;4.50;2.30;;;;;;;3.67;66.58;98797.05;1749950;80;21038;-78
2021/10/24 00:04:24;;;;;;;5.28;2.10;;;;;;;3.64;67.00;98798.31;1739794;81;21038;-79
2021/10/24 00:06:50;;;;;;;4.97;2.60;;;;;;;3.64;66.35;98799.20;1725474;81;20970;-76
2021/10/24 00:09:16;;;;;;;4.83;2.33;;;;;;;3.65;67.21;98802.72;1741969;82;21069;-75
2021/10/24 00:11:43;;;;;;;11.20;2.50;;;;;;;3.60;67.21;98801.75;1743842;82;21025;-78
2021/10/24 00:14:09;;;;;;;5.22;2.50;;;;;;;3.56;67.80;98803.47;1741437;82;20991;-79
2021/10/24 00:16:36;;;;;;;5.42;2.40;;;;;;;3.56;66.25;98799.54;1741658;82;21312;-77
2021/10/24 00:19:04;;;;;;;4.70;2.40;;;;;;;3.59;66.53;98797.38;1741000;82;21433;-78
2021/10/24 00:21:33;;;;;;;6.28;2.20;;;;;;;3.62;66.39;98800.94;1740750;81;21014;-78
2021/10/24 00:23:59;;;;;;;4.95;2.37;;;;;;;3.65;66.70;98804.89;1732421;82;21008;-78
2021/10/24 00:26:26;;;;;;;7.08;2.75;;;;;;;3.66;67.19;98805.33;1728415;82;20980;-78
2021/10/24 00:28:53;;;;;;;3.35;1.95;;;;;;;3.69;67.19;98811.04;1728265;83;20992;-77
2021/10/24 00:31:19;;;;;;;4.33;2.20;;;;;;;3.72;67.43;98813.71;1725742;82;20979;-79
2021/10/24 00:33:46;;;;;;;4.90;2.40;;;;;;;3.72;67.38;98820.27;1706913;83;21545;-77
2021/10/24 00:36:13;;;;;;;6.03;2.10;;;;;;;3.74;68.28;98816.36;1711622;83;20992;-77
2021/10/24 00:38:40;;;;;;;3.27;2.15;;;;;;;3.69;68.14;98828.08;1728788;83;21099;-76
2021/10/24 00:41:07;;;;;;;8.78;2.20;;;;;;;3.75;68.87;98820.73;1728503;82;20996;-76
2021/10/24 00:43:34;;;;;;;5.17;2.20;;;;;;;3.74;68.29;98821.59;1734649;82;20976;-78
2021/10/24 00:46:00;;;;;;;4.53;1.92;;;;;;;3.68;68.05;98833.77;1753225;81;21456;-78
2021/10/24 00:48:27;;;;;;;7.00;2.40;;;;;;;3.62;68.11;98822.33;1729411;83;21446;-76
2021/10/24 00:50:53;;;;;;;5.95;2.22;;;;;;;3.54;68.03;98824.86;1728683;83;20999;-80
2021/10/24 00:53:20;;;;;;;4.22;3.00;;;;;;;3.53;67.72;98824.42;1729034;83;21031;-77
2021/10/24 00:55:47;;;;;;;4.42;2.12;;;;;;;3.43;68.19;98825.61;1719279;82;21046;-76
2021/10/24 00:58:18;;;;;;;4.47;2.15;;;;;;;3.37;67.68;98832.06;1727930;82;21038;-79
2021/10/24 01:00:45;;;;;;;5.92;2.40;;;;;;;3.29;68.15;98833.27;1718890;83;21397;-78
2021/10/24 01:03:12;;;;;;;5.80;2.25;;;;;;;3.23;67.57;98837.55;1727686;83;21000;-77
2021/10/24 01:05:41;;;;;;;3.92;2.25;;;;;;;3.14;69.27;98844.44;1727659;83;20999;-74
2021/10/24 01:08:09;;;;;;;7.15;2.42;;;;;;;3.12;67.87;98849.20;1727838;83;20944;-74
2021/10/24 01:10:37;;;;;;;6.40;2.15;;;;;;;3.10;68.07;98840.42;1742304;82;21035;-73
2021/10/24 01:13:05;;;;;;;7.40;2.55;;;;;;;3.07;67.77;98844.33;1759312;81;21030;-72
2021/10/24 01:15:33;;;;;;;6.53;2.77;;;;;;;3.04;67.65;98853.02;1759072;81;21441;-73
2021/10/24 01:18:01;;;;;;;6.53;2.65;;;;;;;3.01;67.77;98855.59;1757928;81;21000;-74
2021/10/24 01:20:32;;;;;;;4.37;2.65;;;;;;;3.00;67.58;98858.63;1757827;81;21039;-73
2021/10/24 01:23:02;;;;;;;6.47;2.70;;;;;;;3.04;67.93;98858.27;1754504;80;20984;-73
2021/10/24 01:25:29;;;;;;;4.90;2.58;;;;;;;3.06;67.94;98853.92;1769703;80;21047;-74
2021/10/24 01:27:56;;;;;;;9.03;2.70;;;;;;;3.08;67.97;98858.77;1757565;81;20964;-72
2021/10/24 01:30:22;;;;;;;4.00;2.60;;;;;;;3.09;68.45;98856.59;1770425;80;21015;-75
2021/10/24 01:32:49;;;;;;;5.42;2.67;;;;;;;3.07;69.32;98857.42;1780210;80;21473;-75
2021/10/24 01:35:18;;;;;;;3.65;2.40;;;;;;;3.08;69.61;98865.73;1754559;80;21020;-73
2021/10/24 01:37:45;;;;;;;6.62;3.00;;;;;;;3.11;69.37;98867.09;1704531;83;21077;-74
2021/10/24 01:40:16;;;;;;;8.18;2.87;;;;;;;3.10;68.78;98867.52;1732467;83;20962;-74
2021/10/24 01:42:53;;;;;;;4.33;2.77;;;;;;;3.10;68.44;98860.08;1692698;84;21022;-73
2021/10/24 01:45:23;;;;;;;5.25;2.92;;;;;;;3.07;68.63;98863.53;1701204;84;21033;-75
2021/10/24 01:47:54;;;;;;;4.97;2.80;;;;;;;3.05;68.74;98863.95;1699104;84;21055;-73
2021/10/24 01:50:21;;;;;;;7.67;3.40;;;;;;;3.06;68.51;98874.00;1692017;84;20993;-74
2021/10/24 01:52:49;;;;;;;5.65;3.02;;;;;;;3.06;68.34;98881.41;1704564;82;20962;-74
2021/10/24 01:55:20;;;;;;;5.22;3.05;;;;;;;3.06;68.69;98882.73;1702881;83;21022;-72
2021/10/24 01:57:50;;;;;;;8.00;3.50;;;;;;;3.07;68.44;98882.31;1702585;84;21041;-74
2021/10/24 02:00:18;;;;;;;6.95;3.22;;;;;;;3.09;68.58;98884.09;1698278;83;20938;-73
2021/10/24 02:02:49;;;;;;;10.23;3.65;;;;;;;3.12;68.44;98893.73;1702658;83;21109;-74
2021/10/24 02:05:33;;;;;;;6.50;3.10;;;;;;;3.13;69.10;98895.08;1701884;84;21419;-74
2021/10/24 02:08:00;;;;;;;5.33;2.75;;;;;;;3.20;68.32;98892.09;1701661;84;21006;-74
2021/10/24 02:10:29;;;;;;;6.95;3.17;;;;;;;3.22;68.37;98889.08;1701398;84;20973;-73
2021/10/24 02:12:58;;;;;;;5.25;3.00;;;;;;;3.24;68.15;98893.04;1702769;84;20970;-74
2021/10/24 02:15:27;;;;;;;9.15;2.77;;;;;;;3.27;68.28;98900.50;1703189;83;20993;-74
2021/10/24 02:17:55;;;;;;;6.20;2.90;;;;;;;3.30;67.93;98903.59;1702762;84;21013;-74
2021/10/24 02:20:24;;;;;;;6.17;2.67;;;;;;;3.30;67.71;98903.59;1702641;83;21355;-75
2021/10/24 02:22:51;;;;;;;5.80;3.20;;;;;;;3.28;67.93;98902.26;1676279;84;20993;-75
2021/10/24 02:25:20;;;;;;;5.37;2.98;;;;;;;3.26;67.76;98905.30;1729192;81;21009;-76
2021/10/24 02:27:50;;;;;;;6.58;3.08;;;;;;;3.24;67.88;98908.75;1721100;82;21020;-77
2021/10/24 02:30:17;;;;;;;6.35;3.00;;;;;;;3.16;68.43;98903.41;1702654;82;21016;-79
2021/10/24 02:32:44;;;;;;;5.05;3.10;;;;;;;3.07;68.70;98899.33;1742274;82;21025;-79
2021/10/24 02:35:14;;;;;;;5.53;2.90;;;;;;;3.04;68.20;98904.09;1740587;82;21017;-79
2021/10/24 02:37:45;;;;;;;7.58;3.35;;;;;;;2.96;68.78;98916.17;1736355;82;20965;-76
2021/10/24 02:40:20;;;;;;;7.30;3.60;;;;;;;2.90;68.36;98919.56;1742937;82;21546;-80
2021/10/24 02:42:51;;;;;;;6.37;3.22;;;;;;;2.83;68.76;98911.17;1743567;82;20992;-78
2021/10/24 02:45:25;;;;;;;4.85;3.20;;;;;;;2.76;68.65;98909.77;1743017;82;21009;-79
2021/10/24 02:47:53;;;;;;;5.50;3.40;;;;;;;2.72;69.51;98913.61;1742470;82;21418;-76
2021/10/24 02:50:19;;;;;;;7.28;3.52;;;;;;;2.68;69.04;98916.60;1734739;81;21422;-79
2021/10/24 02:52:48;;;;;;;6.45;3.67;;;;;;;2.64;70.02;98916.09;1736469;81;21540;-76
2021/10/24 02:55:15;;;;;;;7.22;3.20;;;;;;;2.61;69.55;98923.88;1743854;81;21027;-79
2021/10/24 02:57:42;;;;;;;5.42;3.05;;;;;;;2.56;70.25;98922.92;1742221;82;20988;-76
2021/10/24 03:00:10;;;;;;;6.20;3.42;;;;;;;2.50;70.25;98921.95;1750958;81;20972;-79
2021/10/24 03:02:37;;;;;;;5.72;3.72;;;;;;;2.52;69.35;98923.30;1741963;82;21430;-79
2021/10/24 03:05:07;;;;;;;6.45;3.33;;;;;;;2.51;69.34;98938.55;1743062;82;21012;-77
2021/10/24 03:07:35;;;;;;;8.60;3.50;;;;;;;2.48;69.54;98938.06;1743754;82;20981;-79
2021/10/24 03:10:03;;;;;;;6.40;4.05;;;;;;;2.46;69.74;98939.76;1743702;82;20977;-79
2021/10/24 03:12:32;;;;;;;7.37;3.62;;;;;;;2.43;70.04;98938.41;1743578;82;21016;-77
2021/10/24 03:15:02;;;;;;;5.85;3.12;;;;;;;2.37;70.70;98945.71;1713301;82;21028;-80
2021/10/24 03:17:29;;;;;;;4.83;3.27;;;;;;;2.35;69.56;98942.20;1718531;82;21020;-77
2021/10/24 03:19:56;;;;;;;6.05;3.52;;;;;;;2.29;69.49;98947.32;1744151;82;21040;-77
2021/10/24 03:22:22;;;;;;;7.55;3.50;;;;;;;2.26;69.59;98946.36;1747274;81;20935;-77
2021/10/24 03:24:49;;;;;;;5.15;3.37;;;;;;;2.19;69.40;98954.50;1742125;81;21088;-78
2021/10/24 03:27:16;;;;;;;9.58;3.70;;;;;;;2.14;69.64;98954.84;1724552;83;20999;-78
2021/10/24 03:29:44;;;;;;;5.12;3.22;;;;;;;2.13;70.05;98957.00;1715251;83;21486;-78
2021/10/24 03:32:11;;;;;;;8.85;3.80;;;;;;;2.08;70.64;98961.71;1736216;83;21443;-78
2021/10/24 03:34:37;;;;;;;9.10;3.45;;;;;;;2.07;70.80;98966.91;1737164;83;21419;-77
2021/10/24 03:37:04;;;;;;;8.58;3.60;;;;;;;2.07;71.17;98955.14;1687360;84;21013;-78
2021/10/24 03:39:32;;;;;;;8.93;3.75;;;;;;;2.06;71.25;98956.89;1696780;83;21365;-77
2021/10/24 03:42:01;;;;;;;12.18;3.70;;;;;;;2.07;71.64;98961.67;1691025;83;21028;-77
2021/10/24 03:44:27;;;;;;;5.72;3.25;;;;;;;2.10;72.24;98957.83;1653532;84;20980;-77
2021/10/24 03:46:54;;;;;;;8.45;3.70;;;;;;;2.09;72.06;98958.69;1705985;84;21430;-77
2021/10/24 03:49:21;;;;;;;7.50;3.60;;;;;;;2.11;72.17;98965.70;1696580;83;20998;-77
2021/10/24 03:51:47;;;;;;;8.55;3.33;;;;;;;2.03;71.95;98960.73;1697209;83;20971;-77
2021/10/24 03:54:14;;;;;;;5.80;3.37;;;;;;;2.04;71.84;98965.55;1698287;84;21006;-77
2021/10/24 03:56:41;;;;;;;5.83;3.50;;;;;;;1.96;71.49;98976.72;1668554;86;21377;-77
2021/10/24 03:59:08;;;;;;;6.83;3.12;;;;;;;1.89;71.41;98973.95;1668689;86;21003;-78
2021/10/24 04:01:34;;;;;;;6.17;3.80;;;;;;;1.84;71.82;98980.40;1695612;83;21026;-78
2021/10/24 04:04:03;;;;;;;5.75;3.30;;;;;;;1.75;71.42;98969.73;1698079;83;20999;-78
2021/10/24 04:06:33;;;;;;;9.13;3.83;;;;;;;1.66;71.01;98978.27;1682527;84;21492;-77
2021/10/24 04:09:00;;;;;;;7.62;3.70;;;;;;;1.62;71.21;98981.22;1697862;84;21039;-76
2021/10/24 04:11:26;;;;;;;5.70;3.50;;;;;;;1.60;72.02;98976.39;1697142;84;21041;-77
2021/10/24 04:13:53;;;;;;;7.25;3.05;;;;;;;1.55;71.52;98976.72;1698457;84;20952;-78
2021/10/24 04:16:20;;;;;;;7.28;3.90;;;;;;;1.52;71.63;98989.70;1699884;84;21455;-78
2021/10/24 04:18:57;;;;;;;9.43;4.28;;;;;;;1.50;74.45;98984.88;1690925;84;21074;-78
2021/10/24 04:21:24;;;;;;;9.30;3.87;;;;;;;1.48;74.00;98990.47;1695578;84;21058;-78
2021/10/24 04:23:51;;;;;;;11.00;4.15;;;;;;;1.47;73.40;98990.02;1725896;82;20990;-78
2021/10/24 04:26:17;;;;;;;7.10;3.62;;;;;;;1.43;74.70;98991.68;1766889;80;21134;-77
2021/10/24 04:28:44;;;;;;;6.35;3.92;;;;;;;1.36;74.60;98992.40;1741490;81;21034;-77
2021/10/24 04:31:11;;;;;;;7.28;3.98;;;;;;;1.34;74.26;98992.77;1752004;79;21034;-78
2021/10/24 04:33:38;;;;;;;7.05;4.20;;;;;;;1.32;74.97;98995.34;1771411;81;20976;-77
2021/10/24 04:36:04;;;;;;;10.70;4.25;;;;;;;1.31;73.46;98995.78;1770333;81;21042;-78
2021/10/24 04:38:32;;;;;;;9.00;4.70;;;;;;;1.30;73.42;98993.13;1770436;81;21003;-77
2021/10/24 04:41:01;;;;;;;8.28;4.15;;;;;;;1.33;73.55;98993.62;1770559;81;21393;-77
2021/10/24 04:43:27;;;;;;;9.23;4.10;;;;;;;1.32;73.30;98994.03;1772041;81;20980;-77
2021/10/24 04:45:55;;;;;;;8.68;4.08;;;;;;;1.34;73.92;98991.46;1770484;80;21077;-78
2021/10/24 04:48:24;;;;;;;9.50;4.37;;;;;;;1.37;73.13;98998.94;1770427;80;20928;-78
2021/10/24 04:50:50;;;;;;;6.58;4.22;;;;;;;1.39;73.60;99002.48;1769217;81;21452;-77
2021/10/24 04:53:19;;;;;;;9.10;4.03;;;;;;;1.39;73.35;98995.06;1782004;79;20953;-77
2021/10/24 04:55:47;;;;;;;7.70;4.55;;;;;;;1.41;73.34;99002.53;1758878;79;21373;-77
2021/10/24 04:58:13;;;;;;;5.80;3.55;;;;;;;1.42;73.21;99002.98;1769550;81;20932;-78
2021/10/24 05:00:41;;;;;;;9.03;4.20;;;;;;;1.39;72.67;99006.41;1771253;79;20988;-77
2021/10/24 05:03:07;;;;;;;9.20;4.12;;;;;;;1.38;72.62;99015.51;1770332;81;21400;-78
2021/10/24 05:05:36;;;;;;;8.45;4.20;;;;;;;1.30;72.63;99026.63;1770371;81;20972;-78
2021/10/24 05:08:03;;;;;;;6.75;3.75;;;;;;;1.22;72.93;99026.89;1770312;81;21413;-78
2021/10/24 05:10:30;;;;;;;8.73;4.20;;;;;;;1.24;72.96;99034.77;1770422;80;21061;-77
2021/10/24 05:12:56;;;;;;;8.00;3.90;;;;;;;1.24;73.16;99037.38;1770445;81;21210;-78
2021/10/24 05:15:23;;;;;;;6.03;3.10;;;;;;;1.23;73.18;99044.73;1770554;81;20976;-77
2021/10/24 05:17:52;;;;;;;9.48;4.05;;;;;;;1.26;73.72;99041.80;1770938;81;21018;-77
2021/10/24 05:20:19;;;;;;;9.08;3.72;;;;;;;1.30;73.40;99054.05;1765341;79;20987;-79
2021/10/24 05:22:46;;;;;;;7.97;3.62;;;;;;;1.34;73.83;99058.95;1769707;79;20999;-78
2021/10/24 05:25:14;;;;;;;9.60;4.08;;;;;;;1.39;73.73;99059.95;1771602;79;21019;-77
2021/10/24 05:27:40;;;;;;;9.63;4.70;;;;;;;1.43;74.01;99070.95;1771929;81;20991;-78
2021/10/24 05:30:08;;;;;;;5.15;3.40;;;;;;;1.47;73.67;99068.39;1771825;81;21007;-78
2021/10/24 05:32:34;;;;;;;9.13;4.50;;;;;;;1.52;74.28;99070.69;1771200;81;20975;-77
2021/10/24 05:35:03;;;;;;;7.37;3.65;;;;;;;1.56;73.55;99079.97;1751922;81;21295;-78
2021/10/24 05:37:30;;;;;;;8.40;4.25;;;;;;;1.58;73.90;99078.26;1772030;81;21080;-78
2021/10/24 05:39:57;;;;;;;8.10;3.83;;;;;;;1.61;74.02;99078.75;1771642;81;20986;-77
2021/10/24 05:42:38;;;;;;;7.55;3.80;;;;;;;1.63;73.44;99073.16;1768577;80;20999;-79
2021/10/24 05:45:09;;;;;;;9.83;4.55;;;;;;;1.67;73.43;99081.95;1760523;79;21027;-78
2021/10/24 05:47:37;;;;;;;8.50;3.92;;;;;;;1.70;73.25;99080.69;1761745;81;20999;-77
2021/10/24 05:50:06;;;;;;;7.80;4.62;;;;;;;1.75;73.09;99086.05;1770370;80;20955;-78
2021/10/24 05:52:33;;;;;;;10.05;4.83;;;;;;;1.79;73.03;99086.14;1735722;81;20952;-77
2021/10/24 05:55:00;;;;;;;9.78;4.45;;;;;;;1.84;73.27;99084.95;1740085;82;20995;-79
2021/10/24 05:57:27;;;;;;;7.72;3.95;;;;;;;1.86;73.35;99091.09;1767927;81;21074;-78
2021/10/24 06:00:09;;;;;;;8.83;4.67;;;;;;;1.90;73.46;99092.94;1765246;81;20967;-78
2021/10/24 06:02:45;;;;;;;8.33;4.28;;;;;;;1.94;73.40;99093.87;1741429;82;20995;-78
2021/10/24 06:05:17;;;;;;;7.20;3.90;;;;;;;1.93;72.94;99095.63;1688772;82;21032;-78
2021/10/24 06:07:43;;;;;;;7.58;4.37;;;;;;;1.95;72.93;99097.84;1772049;81;20932;-78
2021/10/24 06:10:16;;;;;;;10.90;6.67;;;;;;;2.00;72.83;99100.58;1766915;79;21014;-78
2021/10/24 06:12:44;;;;;;;16.82;6.70;;;;;;;2.02;72.78;99100.17;1771335;79;21407;-79
2021/10/24 06:15:14;;;;;;;8.60;4.10;;;;;;;2.06;72.94;99100.72;1771864;81;20999;-78
2021/10/24 06:17:45;;;;;;;5.42;4.10;;;;;;;2.13;72.60;99102.15;1772010;81;20983;-79
2021/10/24 06:20:15;;;;;;;8.30;4.30;;;;;;;2.18;72.88;99112.29;1771672;81;21067;-78
2021/10/24 06:22:44;;;;;;;6.25;3.90;;;;;;;2.24;72.56;99110.70;1786549;79;20944;-78
2021/10/24 06:25:14;;;;;;;9.45;4.40;;;;;;;2.33;72.40;99114.38;1804913;79;20973;-78
2021/10/24 06:27:44;;;;;;;8.73;4.55;;;;;;;2.38;72.28;99118.84;1763272;81;20995;-78
2021/10/24 06:30:17;;;;;;;8.78;4.37;;;;;;;2.44;72.28;99119.41;1775632;81;21127;-78
2021/10/24 06:33:05;;;;;;;11.08;4.62;;;;;;;2.53;72.02;99129.62;1758123;79;21014;-78
2021/10/24 06:35:39;;;;;;;9.23;4.50;;;;;;;2.60;72.12;99130.19;1726981;81;21061;-78
2021/10/24 06:38:18;;;;;;;8.60;3.45;;;;;;;2.67;71.84;99130.80;1745597;81;21456;-77
2021/10/24 06:40:44;;;;;;;8.23;3.60;;;;;;;2.79;71.40;99135.40;1750716;81;21452;-76
2021/10/24 06:43:11;;;;;;;8.33;3.60;;;;;;;2.96;70.76;99141.39;1774787;81;21449;-79
2021/10/24 06:45:40;;;;;;;7.50;3.55;;;;;;;3.09;70.80;99139.88;1772585;80;21010;-80
2021/10/24 06:48:18;;;;;;;6.00;3.12;;;;;;;3.29;72.26;99148.13;1674546;85;21527;-79
2021/10/24 06:50:55;;;;;;;10.88;3.50;;;;;;;3.49;70.70;99148.47;1771468;80;20966;-79
2021/10/24 06:53:40;;;;;;;9.13;3.72;;;;;;;3.65;69.62;99148.77;1776063;79;20950;-78
2021/10/24 06:56:11;;;;;;;8.63;3.65;;;;;;;3.85;70.29;99144.28;1769958;79;21003;-79
2021/10/24 06:58:56;;;;;;;;;;;;;;;4.00;69.74;99147.56;1786838;80;20984;-78
2021/10/24 07:01:30;;;;;;;8.70;3.58;;;;;;;4.15;68.88;99149.55;1742048;81;20128;-79
2021/10/24 07:04:15;;;;;;;8.25;3.67;;;;;;;4.28;68.25;99151.92;1764264;81;20952;-79
2021/10/24 07:06:49;;;;;;;;;;;;;;;4.36;67.67;99152.48;1774641;81;21433;-78
2021/10/24 07:09:21;;;;;;;7.12;3.17;;;;;;;4.43;67.29;99154.77;1772746;81;20086;-78
2021/10/24 07:11:47;;;;;;;5.15;2.65;;;;;;;4.48;67.00;99157.44;1773200;81;21066;-78
2021/10/24 07:14:14;;;;;;;5.03;2.27;;;;;;;4.55;65.76;99161.93;1773363;81;21408;-80
2021/10/24 07:16:40;;;;;;;7.75;2.83;;;;;;;4.68;65.63;99156.82;1773241;81;20984;-79
2021/10/24 07:19:07;;;;;;;7.85;3.22;;;;;;;4.77;65.41;99156.08;1773489;81;21046;-80
2021/10/24 07:21:33;;;;;;;6.85;3.52;;;;;;;4.85;65.82;99164.50;1777266;79;21367;-80
2021/10/24 07:24:00;;;;;;;5.67;2.30;;;;;;;4.95;64.84;99161.98;1773043;79;21025;-80
2021/10/24 07:26:29;;;;;;;4.45;2.98;;;;;;;5.09;63.76;99161.72;1720401;82;21519;-80
2021/10/24 07:28:56;;;;;;;4.62;2.52;;;;;;;5.15;63.71;99158.30;1726169;83;21043;-80
2021/10/24 07:31:23;;;;;;;7.97;3.00;;;;;;;5.24;63.38;99170.19;1753235;80;20963;-80
2021/10/24 07:33:51;;;;;;;3.60;2.33;;;;;;;5.37;62.92;99154.56;1752028;82;21406;-80
2021/10/24 07:36:25;;;;;;;5.65;2.50;;;;;;;5.50;63.03;99170.92;1753339;82;21043;-79
2021/10/24 07:38:52;;;;;;;6.65;2.50;;;;;;;5.56;63.08;99160.88;1754136;82;21020;-78
2021/10/24 07:41:19;;;;;;;6.55;2.50;;;;;;;5.66;62.12;99162.72;1754750;82;21032;-79
2021/10/24 07:43:46;;;;;;;7.30;2.77;;;;;;;5.75;62.43;99161.05;1753793;82;21481;-79
2021/10/24 07:46:13;;;;;;;5.53;2.10;;;;;;;5.84;61.64;99173.39;1742342;82;21469;-79
2021/10/24 07:48:39;;;;;;;6.83;2.67;;;;;;;5.98;60.44;99170.45;1720426;82;20992;-79
2021/10/24 07:51:08;;;;;;;5.40;2.12;;;;;;;6.07;59.67;99174.50;1746335;80;20988;-79
2021/10/24 07:53:35;;;;;;;5.72;2.35;;;;;;;6.11;59.91;99176.75;1726347;83;21039;-79
2021/10/24 07:56:04;;;;;;;5.33;2.52;;;;;;;6.22;61.06;99175.48;1738954;82;20975;-79
2021/10/24 07:58:39;;;;;;;6.08;2.20;;;;;;;6.30;60.08;99176.86;1746079;82;21000;-79
2021/10/24 08:01:07;;;;;;;5.50;2.55;;;;;;;6.40;59.46;99177.36;1756072;82;20995;-79
2021/10/24 08:03:34;;;;;;;6.78;2.33;;;;;;;6.50;59.85;99180.05;1755559;82;21329;-78
2021/10/24 08:06:01;;;;;;;7.33;2.25;;;;;;;6.57;60.68;99167.38;1754776;82;21417;-78
2021/10/24 08:08:28;;;;;;;9.38;2.10;;;;;;;6.63;60.03;99175.31;1756303;82;21071;-79
2021/10/24 08:10:54;;;;;;;9.50;2.98;;;;;;;6.72;60.70;99178.42;1755881;82;21053;-79
2021/10/24 08:13:24;;;;;;;7.47;2.40;;;;;;;6.82;58.58;99180.69;1755078;82;21000;-80
2021/10/24 08:15:52;;;;;;;6.15;2.30;;;;;;;6.91;58.86;99174.14;1746441;80;20980;-80
2021/10/24 08:18:19;;;;;;;4.20;1.87;;;;;;;6.99;59.60;99171.08;1756233;82;21003;-80
2021/10/24 08:21:04;;;;;;;4.67;1.70;;;;;;;7.08;60.12;99178.16;1753825;80;21040;-80
2021/10/24 08:23:32;;;;;;;6.53;2.22;;;;;;;7.22;57.25;99172.92;1756305;80;20975;-80
2021/10/24 08:25:59;;;;;;;3.12;2.00;;;;;;;7.33;59.11;99174.28;1762910;80;21436;-79
2021/10/24 08:28:25;;;;;;;5.03;1.80;;;;;;;7.39;59.01;99170.34;1770367;81;21059;-79
2021/10/24 08:30:55;;;;;;;5.08;2.02;;;;;;;7.49;57.58;99169.03;1770440;81;20992;-82
2021/10/24 08:33:29;;;;;;;6.58;2.02;;;;;;;7.55;56.16;99178.73;1769320;81;20952;-80
2021/10/24 08:35:54;;;;;;;5.87;2.37;;;;;;;7.56;54.84;99183.13;1779122;80;21476;-77
2021/10/24 08:38:22;;;;;;;6.15;1.80;;;;;;;7.56;55.84;99172.58;1770558;81;21039;-75
2021/10/24 08:40:49;;;;;;;5.72;2.00;;;;;;;7.60;55.71;99183.58;1762136;79;20991;-75
2021/10/24 08:43:20;;;;;;;5.58;1.80;;;;;;;7.67;54.87;99187.97;1771559;80;21476;-75
2021/10/24 08:45:48;;;;;;;4.65;1.92;;;;;;;7.64;54.56;99171.70;1771632;81;21453;-75
2021/10/24 08:48:18;;;;;;;9.58;3.10;;;;;;;7.72;55.74;99178.77;1770274;81;21500;-74
2021/10/24 08:50:45;;;;;;;6.55;1.85;;;;;;;7.78;55.69;99174.34;1770684;79;21018;-75
2021/10/24 08:53:13;;;;;;;3.67;1.70;;;;;;;7.87;55.14;99177.87;1774241;79;21002;-76
2021/10/24 08:55:41;;;;;;;4.80;1.92;;;;;;;7.95;55.91;99172.17;1762218;79;21027;-75
2021/10/24 08:58:10;;;;;;;5.20;2.10;;;;;;;8.04;55.22;99167.31;1740963;82;21035;-76
2021/10/24 09:00:38;;;;;;;8.10;2.30;;;;;;;8.12;54.06;99176.13;1763403;79;21047;-77
2021/10/24 09:03:09;;;;;;;5.53;1.87;;;;;;;8.17;54.52;99174.36;1805167;78;21007;-77
2021/10/24 09:05:46;;;;;;;5.65;2.02;;;;;;;8.20;53.83;99173.48;1769606;79;21444;-76
2021/10/24 09:08:16;;;;;;;5.97;2.20;;;;;;;8.23;53.70;99170.84;1736046;80;21007;-76
2021/10/24 09:10:56;;;;;;;5.08;1.87;;;;;;;8.30;54.20;99169.94;1763049;79;21003;-75
2021/10/24 09:13:27;;;;;;;8.10;2.08;;;;;;;8.37;54.68;99162.89;1757926;79;21026;-74
2021/10/24 09:16:05;;;;;;;3.02;1.70;;;;;;;8.46;53.38;99168.59;1770778;81;21527;-75
2021/10/24 09:18:40;;;;;;;5.95;2.33;;;;;;;8.42;51.04;99165.51;1771865;81;21396;-75
2021/10/24 09:21:23;;;;;;;6.65;2.35;;;;;;;8.47;52.16;99168.16;1782286;79;21031;-75
2021/10/24 09:24:11;;;;;;;6.37;2.20;;;;;;;8.48;51.55;99163.31;1805861;79;21041;-75
2021/10/24 09:26:40;;;;;;;5.00;2.05;;;;;;;8.56;52.43;99162.43;1804581;78;21497;-76
2021/10/24 09:29:13;;;;;;;3.17;1.87;;;;;;;8.66;51.18;99162.41;1803474;79;21020;-76
2021/10/24 09:31:51;;;;;;;13.65;7.00;;;;;;;8.70;51.39;99165.05;1803736;79;21017;-75
2021/10/24 09:34:25;;;;;;;4.37;1.87;;;;;;;8.84;51.34;99172.92;1777425;79;20951;-75
2021/10/24 09:37:02;;;;;;;5.10;1.77;;;;;;;8.77;48.95;99168.99;1761783;79;21343;-75
2021/10/24 09:39:44;;;;;;;3.70;2.10;;;;;;;8.76;50.52;99161.95;1766455;81;20987;-74
2021/10/24 09:42:26;;;;;;;5.33;2.50;;;;;;;8.82;50.14;99169.85;1773237;81;20958;-74
2021/10/24 09:45:13;;;;;;;5.00;2.08;;;;;;;8.83;50.46;99154.42;1781200;80;20960;-74
2021/10/24 09:47:44;;;;;;;4.05;1.87;;;;;;;8.94;51.13;99158.35;1796195;80;20991;-74
2021/10/24 09:50:34;;;;;;;4.95;1.92;;;;;;;8.98;50.62;99151.71;1756390;79;20971;-73
2021/10/24 09:53:21;;;;;;;5.60;2.10;;;;;;;9.06;49.17;99153.00;1758341;79;21109;-75
2021/10/24 09:56:02;;;;;;;3.95;1.85;;;;;;;9.16;50.77;99146.34;1743167;82;21050;-76
2021/10/24 09:58:38;;;;;;;5.67;2.17;;;;;;;9.31;50.94;99154.22;1742198;81;21058;-74
2021/10/24 10:01:09;;;;;;;2.60;1.50;;;;;;;9.41;49.39;99146.20;1743286;82;21037;-77
2021/10/24 10:03:36;;;;;;;6.30;2.58;;;;;;;9.39;48.43;99155.50;1743762;82;21472;-79
2021/10/24 10:06:04;;;;;;;4.25;2.08;;;;;;;9.36;48.33;99150.21;1743408;82;21006;-75
2021/10/24 10:08:31;;;;;;;5.00;1.90;;;;;;;9.41;48.32;99162.97;1743546;82;21494;-77
2021/10/24 10:11:25;;;;;;;4.97;1.70;;;;;;;9.44;48.54;99147.08;1743474;82;21435;-79
2021/10/24 10:14:16;;;;;;;3.52;1.67;;;;;;;9.46;46.80;99160.28;1740911;81;21471;-80
2021/10/24 10:16:47;;;;;;;6.08;1.90;;;;;;;9.46;47.21;99146.61;1763914;79;21023;-80
2021/10/24 10:19:14;;;;;;;7.03;1.80;;;;;;;9.55;47.21;99152.75;1748903;80;20986;-81
2021/10/24 10:21:49;;;;;;;4.92;1.72;;;;;;;9.54;46.06;99145.70;1776647;79;20989;-78
2021/10/24 10:24:39;;;;;;;5.67;2.02;;;;;;;9.45;46.06;99155.45;1772440;81;21027;-79
2021/10/24 10:27:38;;;;;;;7.03;1.80;;;;;;;9.48;46.03;99158.52;1767494;80;21016;-78
2021/10/24 10:30:13;;;;;;;4.37;1.60;;;;;;;9.75;45.54;99132.73;1700016;84;21075;-80
2021/10/24 10:32:47;;;;;;;4.65;2.00;;;;;;;10.96;42.72;99141.25;1755051;81;21488;-78
2021/10/24 10:35:21;;;;;;;3.80;1.60;;;;;;;12.23;41.80;99146.48;1759866;81;21026;-74
2021/10/24 10:38:01;;;;;;;3.95;2.10;;;;;;;13.33;38.79;99126.10;1765364;81;21500;-75
2021/10/24 10:40:41;;;;;;;7.00;2.30;;;;;;;13.93;36.87;99122.08;1764567;81;21047;-78
2021/10/24 10:43:20;;;;;;;2.83;1.60;;;;;;;14.83;35.13;99127.73;1764759;81;21016;-79
2021/10/24 10:45:57;;;;;;;2.60;1.67;;;;;;;15.44;36.09;99124.12;1764803;81;21074;-79
2021/10/24 10:48:41;;;;;;;10.75;5.97;;;;;;;16.53;34.69;99117.45;1765077;81;20960;-79
2021/10/24 10:51:29;;;;;;;4.22;2.00;;;;;;;16.69;31.18;99099.88;1750484;80;21039;-79
2021/10/24 10:54:03;;;;;;;4.62;2.35;;;;;;;17.25;32.96;99098.28;1764850;81;21078;-78
2021/10/24 10:56:48;;;;;;;3.17;2.05;;;;;;;18.14;31.22;99096.06;1765309;81;21158;-79
2021/10/24 10:59:36;;;;;;;4.45;1.70;;;;;;;18.05;26.92;99098.62;1765182;81;21035;-78
2021/10/24 11:02:27;;;;;;;3.30;1.60;;;;;;;18.80;27.01;99107.01;1765866;81;21409;-78
2021/10/24 11:05:00;;;;;;;6.25;2.15;;;;;;;18.72;26.96;99108.70;1763804;80;21055;-78
2021/10/24 11:07:41;;;;;;;3.00;1.40;;;;;;;19.15;27.44;99098.76;1766278;81;21040;-79
2021/10/24 11:10:28;;;;;;;3.80;1.90;;;;;;;20.00;29.25;99096.45;1766311;81;21094;-79
2021/10/24 11:12:55;;;;;;;4.65;1.90;;;;;;;21.00;27.06;99078.68;1766792;81;21038;-80
2021/10/24 11:15:29;;;;;;;2.52;1.40;;;;;;;21.15;25.28;99089.56;1766621;81;21027;-80
2021/10/24 11:17:59;;;;;;;4.08;1.55;;;;;;;21.68;26.38;99085.25;1766558;81;20995;-80
2021/10/24 11:20:40;;;;;;;4.25;1.77;;;;;;;22.37;23.47;99084.80;1770154;80;21000;-80
2021/10/24 11:23:11;;;;;;;2.72;1.42;;;;;;;22.55;24.60;99086.92;1782916;80;20963;-80
2021/10/24 11:25:39;;;;;;;3.05;1.50;;;;;;;22.19;22.78;99089.03;1766800;81;21031;-80
2021/10/24 11:28:20;;;;;;;2.37;1.30;;;;;;;23.00;22.63;99074.64;1770959;80;21167;-80
2021/10/24 11:30:55;;;;;;;3.30;1.92;;;;;;;23.21;21.90;99067.48;1771339;81;21023;-80
2021/10/24 11:33:21;;;;;;;2.58;1.60;;;;;;;23.44;22.41;99075.95;1771468;81;21027;-80
2021/10/24 11:35:48;;;;;;;3.27;1.80;;;;;;;23.64;21.89;99073.75;1771378;81;21038;-78
2021/10/24 11:38:15;;;;;;;3.58;1.50;;;;;;;23.12;23.15;99080.25;1771186;81;21478;-78
2021/10/24 11:40:49;;;;;;;4.25;1.62;;;;;;;22.73;21.80;99088.06;1771391;81;21542;-80
2021/10/24 11:43:21;;;;;;;3.45;1.85;;;;;;;21.48;21.40;99089.97;1771623;81;21051;-78
2021/10/24 11:45:56;;;;;;;3.35;1.40;;;;;;;20.57;22.55;99076.48;1771375;81;21058;-79
2021/10/24 11:48:30;;;;;;;3.83;2.05;;;;;;;20.68;24.36;99079.45;1771396;81;21019;-79
2021/10/24 11:51:11;;;;;;;3.25;1.60;;;;;;;20.19;24.05;99068.14;1770422;79;20992;-79
2021/10/24 11:53:47;;;;;;;2.52;1.70;;;;;;;20.17;22.71;99091.55;1806095;79;20974;-79
2021/10/24 11:56:22;;;;;;;4.58;1.65;;;;;;;19.71;23.81;99077.24;1805976;79;20968;-80
2021/10/24 11:59:12;;;;;;;3.80;1.72;;;;;;;18.38;24.58;99090.54;1806727;78;20997;-80